< Typhoon 199917 1999 Season Typhoon 199919 >
Typhoon 199918 (BART)
General InformationTrack Information on Google MapsDetailed Wind InformationList of All Images || NewsDisaster Info.ResourceGoogle EarthGE AnimationAtom FeedGeoJSON
Detalied Best Track (Time Zone = UTC)
Year Month Day Hour Lat. Long. Pressure (hPa) Wind (kt) Class Image Chart
1999 9 17 00 20.2 129.5 1004 0 2 Image Chart
1999 9 17 06 19.9 130.1 1002 0 2 Image Chart
1999 9 17 12 19.7 130.7 1002 0 2 Image Chart
1999 9 17 18 20.0 131.0 1000 0 2 Image Chart
1999 9 18 00 20.1 130.7 1000 0 2 Image Chart
1999 9 18 06 20.3 130.3 1000 0 2 Image Chart
1999 9 18 12 20.7 130.3 1000 0 2 Image Chart
1999 9 18 18 21.3 130.0 996 0 2 Image Chart
1999 9 19 00 22.1 128.2 992 35 3 Image Chart
1999 9 19 06 23.0 126.9 990 40 3 Image Chart
1999 9 19 12 23.2 126.4 990 40 3 Image Chart
1999 9 19 18 23.5 125.4 985 50 4 Image Chart
1999 9 20 00 23.6 125.4 985 50 4 Image Chart
1999 9 20 03 23.6 125.3 980 55 4 Image Chart
1999 9 20 06 23.8 125.3 975 55 4 Image Chart
1999 9 20 09 23.9 125.5 975 55 4 Image Chart
1999 9 20 12 24.1 125.5 970 65 5 Image Chart
1999 9 20 15 24.2 125.4 970 65 5 Image Chart
1999 9 20 18 24.1 125.2 965 70 5 Image Chart
1999 9 20 21 24.1 125.3 960 75 5 Image Chart
1999 9 21 00 24.2 125.5 955 75 5 Image Chart
1999 9 21 03 24.3 125.7 955 75 5 Image Chart
1999 9 21 06 24.5 125.8 950 80 5 Image Chart
1999 9 21 09 24.6 126.1 950 80 5 Image Chart
1999 9 21 12 24.6 126.3 945 80 5 Image Chart
1999 9 21 15 24.8 126.6 945 80 5 Image Chart
1999 9 21 18 25.0 126.7 940 80 5 Image Chart
1999 9 21 21 25.3 126.8 940 80 5 Image Chart
1999 9 22 00 25.5 126.9 935 85 5 Image Chart
1999 9 22 03 25.7 126.8 935 85 5 Image Chart
1999 9 22 06 25.9 127.0 935 85 5 Image Chart
1999 9 22 09 26.0 127.1 935 85 5 Image Chart
1999 9 22 12 26.3 127.2 930 90 5 Image Chart
1999 9 22 15 26.6 127.2 930 90 5 Image Chart
1999 9 22 18 27.0 127.2 930 90 5 Image Chart
1999 9 22 21 27.4 127.3 930 90 5 Image Chart
1999 9 23 00 27.8 127.3 930 90 5 Image Chart
1999 9 23 03 28.3 127.5 930 90 5 Image Chart
1999 9 23 06 28.9 127.8 935 90 5 Image Chart
1999 9 23 09 29.5 128.1 935 90 5 Image Chart
1999 9 23 12 30.4 128.6 935 90 5 Image Chart
1999 9 23 15 31.0 129.0 935 90 5 Image Chart
1999 9 23 18 31.7 129.7 935 90 5 Image Chart
1999 9 23 19 32.2 129.9 940 85 5 Image Chart
1999 9 23 21 33.0 130.5 950 80 5 Image Chart
1999 9 23 23 33.8 131.2 950 80 5 Image Chart
1999 9 24 00 34.3 131.3 960 80 5 Image Chart
1999 9 24 03 35.7 132.6 965 70 5 Image Chart
1999 9 24 06 37.1 133.7 965 70 5 Image Chart
1999 9 24 09 38.8 135.6 970 65 5 Image Chart
1999 9 24 12 40.0 137.0 970 65 5 Image Chart
1999 9 24 15 41.3 138.6 975 60 4 Image Chart
1999 9 24 17 42.4 139.9 975 60 4 Image Chart
1999 9 24 18 42.9 140.3 980 60 4 Image Chart
1999 9 24 21 43.8 141.1 980 60 4 Image Chart
1999 9 25 00 44.7 141.7 980 50 4 Image Chart
1999 9 25 03 45.1 143.5 980 0 6 Image Chart
1999 9 25 06 46.6 145.5 984 0 6 Image Chart
1999 9 25 12 47.4 148.1 984 0 6 Image Chart
1999 9 25 18 48.8 151.4 984 0 6 Image Chart
1999 9 26 00 49.7 153.3 980 0 6 Image Chart
1999 9 26 06 50.3 155.1 976 0 6 Image Chart
1999 9 26 12 50.7 156.2 970 0 6 Image Chart
1999 9 26 18 51.0 158.8 972 0 6 Image Chart
1999 9 27 00 51.3 161.6 976 0 6 Image Chart
1999 9 27 06 51.7 164.9 980 0 6 Image Chart
1999 9 27 12 52.1 168.0 980 0 6 Image Chart
1999 9 27 18 52.4 170.2 984 0 6 Image Chart
1999 9 28 00 52.8 171.6 988 0 6 Image Chart
1999 9 28 06 53.1 173.0 988 0 6 Image Chart
1999 9 28 12 53.3 175.2 992 0 6 Image Chart
1999 9 28 18 53.9 177.2 992 0 6 Image Chart
1999 9 29 00 54.6 179.2 992 0 6 Image Chart
1999 9 29 06 55.8 182.7 996 0 6 Image Chart
Japan Meteorological Agency Best Track Data | Correction Date : 2005-03-01
< Typhoon 199917 1999 Season Typhoon 199919 >

Help